Aviation Digital Data Service (ADDS)

Output produced by METARs form (1222 UTC 16 July 2019)
found at http://www.aviationweather.gov/metar/data/
 
TAF WMKE 161100Z 1612/1712 14006KT 9999 FEW015CB 
     TEMPO 1612/1616 6000 TSRA FEW014CB SCT016